sensor_id;sensor_type;location;lat;lon;timestamp;temperature;humidity
17154;DHT22;8692;52.164;7.558;2023-02-15T00:01:18;2.50;99.90
17154;DHT22;8692;52.164;7.558;2023-02-15T00:03:48;2.50;99.90
17154;DHT22;8692;52.164;7.558;2023-02-15T00:06:17;2.50;99.90
17154;DHT22;8692;52.164;7.558;2023-02-15T00:08:47;2.50;99.90
17154;DHT22;8692;52.164;7.558;2023-02-15T00:11:17;2.50;99.90
17154;DHT22;8692;52.164;7.558;2023-02-15T00:14:08;2.40;99.90
17154;DHT22;8692;52.164;7.558;2023-02-15T00:16:38;2.40;99.90
17154;DHT22;8692;52.164;7.558;2023-02-15T00:19:08;2.40;99.90
17154;DHT22;8692;52.164;7.558;2023-02-15T00:21:37;2.40;99.90
17154;DHT22;8692;52.164;7.558;2023-02-15T00:24:09;2.30;99.90
17154;DHT22;8692;52.164;7.558;2023-02-15T00:26:39;2.30;99.90
17154;DHT22;8692;52.164;7.558;2023-02-15T00:29:09;2.30;99.90
17154;DHT22;8692;52.164;7.558;2023-02-15T00:31:38;2.30;99.90
17154;DHT22;8692;52.164;7.558;2023-02-15T00:34:12;2.20;99.90
17154;DHT22;8692;52.164;7.558;2023-02-15T00:36:41;2.20;99.90
17154;DHT22;8692;52.164;7.558;2023-02-15T00:39:14;2.20;99.90
17154;DHT22;8692;52.164;7.558;2023-02-15T00:41:43;2.20;99.90
17154;DHT22;8692;52.164;7.558;2023-02-15T00:44:12;2.20;99.90
17154;DHT22;8692;52.164;7.558;2023-02-15T00:46:42;2.10;99.90
17154;DHT22;8692;52.164;7.558;2023-02-15T00:49:10;2.10;99.90
17154;DHT22;8692;52.164;7.558;2023-02-15T00:51:38;2.10;99.90
17154;DHT22;8692;52.164;7.558;2023-02-15T00:54:07;2.10;99.90
17154;DHT22;8692;52.164;7.558;2023-02-15T00:56:36;2.10;99.90
17154;DHT22;8692;52.164;7.558;2023-02-15T00:59:04;2.10;99.90
17154;DHT22;8692;52.164;7.558;2023-02-15T01:01:32;2.00;99.90
17154;DHT22;8692;52.164;7.558;2023-02-15T01:04:02;2.00;99.90
17154;DHT22;8692;52.164;7.558;2023-02-15T01:06:30;2.00;99.90
17154;DHT22;8692;52.164;7.558;2023-02-15T01:09:01;2.00;99.90
17154;DHT22;8692;52.164;7.558;2023-02-15T01:11:29;2.00;99.90
17154;DHT22;8692;52.164;7.558;2023-02-15T01:13:57;2.00;99.90
17154;DHT22;8692;52.164;7.558;2023-02-15T01:16:27;1.90;99.90
17154;DHT22;8692;52.164;7.558;2023-02-15T01:18:56;1.90;99.90
17154;DHT22;8692;52.164;7.558;2023-02-15T01:21:26;1.90;99.90
17154;DHT22;8692;52.164;7.558;2023-02-15T01:23:56;1.90;99.90
17154;DHT22;8692;52.164;7.558;2023-02-15T01:26:26;1.90;99.90
17154;DHT22;8692;52.164;7.558;2023-02-15T01:28:57;1.80;99.90
17154;DHT22;8692;52.164;7.558;2023-02-15T01:31:25;1.80;99.90
17154;DHT22;8692;52.164;7.558;2023-02-15T01:33:54;1.80;99.90
17154;DHT22;8692;52.164;7.558;2023-02-15T01:36:22;1.80;99.90
17154;DHT22;8692;52.164;7.558;2023-02-15T01:38:52;1.80;99.90
17154;DHT22;8692;52.164;7.558;2023-02-15T01:41:20;1.70;99.90
17154;DHT22;8692;52.164;7.558;2023-02-15T01:43:52;1.70;99.90
17154;DHT22;8692;52.164;7.558;2023-02-15T01:46:26;1.70;99.90
17154;DHT22;8692;52.164;7.558;2023-02-15T01:49:02;1.70;99.90
17154;DHT22;8692;52.164;7.558;2023-02-15T01:51:34;1.70;99.90
17154;DHT22;8692;52.164;7.558;2023-02-15T01:54:09;1.70;99.90
17154;DHT22;8692;52.164;7.558;2023-02-15T01:56:39;1.70;99.90
17154;DHT22;8692;52.164;7.558;2023-02-15T01:59:11;1.60;99.90
17154;DHT22;8692;52.164;7.558;2023-02-15T02:01:45;1.60;99.90
17154;DHT22;8692;52.164;7.558;2023-02-15T02:04:22;1.60;99.90
17154;DHT22;8692;52.164;7.558;2023-02-15T02:06:57;1.60;99.90
17154;DHT22;8692;52.164;7.558;2023-02-15T02:09:29;1.60;99.90
17154;DHT22;8692;52.164;7.558;2023-02-15T02:12:00;1.60;99.90
17154;DHT22;8692;52.164;7.558;2023-02-15T02:14:29;1.60;99.90
17154;DHT22;8692;52.164;7.558;2023-02-15T02:17:03;1.60;99.90
17154;DHT22;8692;52.164;7.558;2023-02-15T02:19:58;1.60;99.90
17154;DHT22;8692;52.164;7.558;2023-02-15T02:32:34;1.50;99.90
17154;DHT22;8692;52.164;7.558;2023-02-15T02:35:11;1.50;99.90
17154;DHT22;8692;52.164;7.558;2023-02-15T02:37:49;1.50;99.90
17154;DHT22;8692;52.164;7.558;2023-02-15T02:40:24;1.50;99.90
17154;DHT22;8692;52.164;7.558;2023-02-15T02:43:00;1.50;99.90
17154;DHT22;8692;52.164;7.558;2023-02-15T02:45:35;1.50;99.90
17154;DHT22;8692;52.164;7.558;2023-02-15T02:48:13;1.40;99.90
17154;DHT22;8692;52.164;7.558;2023-02-15T02:50:43;1.40;99.90
17154;DHT22;8692;52.164;7.558;2023-02-15T02:53:12;1.40;99.90
17154;DHT22;8692;52.164;7.558;2023-02-15T02:55:44;1.40;99.90
17154;DHT22;8692;52.164;7.558;2023-02-15T02:58:18;1.40;99.90
17154;DHT22;8692;52.164;7.558;2023-02-15T03:00:52;1.40;99.90
17154;DHT22;8692;52.164;7.558;2023-02-15T03:03:25;1.40;99.90
17154;DHT22;8692;52.164;7.558;2023-02-15T03:05:59;1.40;99.90
17154;DHT22;8692;52.164;7.558;2023-02-15T03:08:36;1.30;99.90
17154;DHT22;8692;52.164;7.558;2023-02-15T03:11:08;1.30;99.90
17154;DHT22;8692;52.164;7.558;2023-02-15T03:13:37;1.30;99.90
17154;DHT22;8692;52.164;7.558;2023-02-15T03:16:09;1.30;99.90
17154;DHT22;8692;52.164;7.558;2023-02-15T03:19:00;1.30;99.90
17154;DHT22;8692;52.164;7.558;2023-02-15T03:21:35;1.30;99.90
17154;DHT22;8692;52.164;7.558;2023-02-15T03:24:09;1.30;99.90
17154;DHT22;8692;52.164;7.558;2023-02-15T03:26:43;1.30;99.90
17154;DHT22;8692;52.164;7.558;2023-02-15T03:29:13;1.20;99.90
17154;DHT22;8692;52.164;7.558;2023-02-15T03:31:46;1.20;99.90
17154;DHT22;8692;52.164;7.558;2023-02-15T03:34:19;1.20;99.90
17154;DHT22;8692;52.164;7.558;2023-02-15T03:36:53;1.20;99.90
17154;DHT22;8692;52.164;7.558;2023-02-15T03:39:30;1.20;99.90
17154;DHT22;8692;52.164;7.558;2023-02-15T03:42:04;1.20;99.90
17154;DHT22;8692;52.164;7.558;2023-02-15T03:44:46;1.20;99.90
17154;DHT22;8692;52.164;7.558;2023-02-15T03:47:22;1.10;99.90
17154;DHT22;8692;52.164;7.558;2023-02-15T03:49:54;1.10;99.90
17154;DHT22;8692;52.164;7.558;2023-02-15T03:52:28;1.10;99.90
17154;DHT22;8692;52.164;7.558;2023-02-15T03:54:57;1.10;99.90
17154;DHT22;8692;52.164;7.558;2023-02-15T03:57:28;1.10;99.90
17154;DHT22;8692;52.164;7.558;2023-02-15T04:00:17;1.10;99.90
17154;DHT22;8692;52.164;7.558;2023-02-15T04:03:11;1.10;99.90
17154;DHT22;8692;52.164;7.558;2023-02-15T04:05:41;1.00;99.90
17154;DHT22;8692;52.164;7.558;2023-02-15T04:08:11;1.00;99.90
17154;DHT22;8692;52.164;7.558;2023-02-15T04:10:40;1.10;99.90
17154;DHT22;8692;52.164;7.558;2023-02-15T04:13:20;1.00;99.90
17154;DHT22;8692;52.164;7.558;2023-02-15T04:15:53;1.00;99.90
17154;DHT22;8692;52.164;7.558;2023-02-15T04:18:35;1.00;99.90
17154;DHT22;8692;52.164;7.558;2023-02-15T04:21:22;1.00;99.90
17154;DHT22;8692;52.164;7.558;2023-02-15T04:24:12;1.00;99.90
17154;DHT22;8692;52.164;7.558;2023-02-15T04:26:59;1.00;99.90
17154;DHT22;8692;52.164;7.558;2023-02-15T04:29:27;1.00;99.90
17154;DHT22;8692;52.164;7.558;2023-02-15T04:31:59;1.00;99.90
17154;DHT22;8692;52.164;7.558;2023-02-15T04:34:30;0.90;99.90
17154;DHT22;8692;52.164;7.558;2023-02-15T04:36:58;0.90;99.90
17154;DHT22;8692;52.164;7.558;2023-02-15T04:39:27;0.90;99.90
17154;DHT22;8692;52.164;7.558;2023-02-15T04:41:58;0.90;99.90
17154;DHT22;8692;52.164;7.558;2023-02-15T04:44:26;0.90;99.90
17154;DHT22;8692;52.164;7.558;2023-02-15T04:46:54;0.90;99.90
17154;DHT22;8692;52.164;7.558;2023-02-15T04:49:22;0.90;99.90
17154;DHT22;8692;52.164;7.558;2023-02-15T04:51:52;0.90;99.90
17154;DHT22;8692;52.164;7.558;2023-02-15T04:54:23;0.80;99.90
17154;DHT22;8692;52.164;7.558;2023-02-15T04:56:52;0.80;99.90
17154;DHT22;8692;52.164;7.558;2023-02-15T04:59:22;0.80;99.90
17154;DHT22;8692;52.164;7.558;2023-02-15T05:01:51;0.80;99.90
17154;DHT22;8692;52.164;7.558;2023-02-15T05:04:19;0.80;99.90
17154;DHT22;8692;52.164;7.558;2023-02-15T05:06:50;0.80;99.90
17154;DHT22;8692;52.164;7.558;2023-02-15T05:09:18;0.80;99.90
17154;DHT22;8692;52.164;7.558;2023-02-15T05:11:46;0.80;99.90
17154;DHT22;8692;52.164;7.558;2023-02-15T05:14:15;0.80;99.90
17154;DHT22;8692;52.164;7.558;2023-02-15T05:16:43;0.70;99.90
17154;DHT22;8692;52.164;7.558;2023-02-15T05:19:14;0.70;99.90
17154;DHT22;8692;52.164;7.558;2023-02-15T05:21:42;0.70;99.90
17154;DHT22;8692;52.164;7.558;2023-02-15T05:24:10;0.70;99.90
17154;DHT22;8692;52.164;7.558;2023-02-15T05:26:56;0.70;99.90
17154;DHT22;8692;52.164;7.558;2023-02-15T05:29:43;0.70;99.90
17154;DHT22;8692;52.164;7.558;2023-02-15T05:32:12;0.70;99.90
17154;DHT22;8692;52.164;7.558;2023-02-15T05:34:43;0.60;99.90
17154;DHT22;8692;52.164;7.558;2023-02-15T05:37:11;0.60;99.90
17154;DHT22;8692;52.164;7.558;2023-02-15T05:39:42;0.60;99.90
17154;DHT22;8692;52.164;7.558;2023-02-15T05:42:12;0.60;99.90
17154;DHT22;8692;52.164;7.558;2023-02-15T05:44:44;0.60;99.90
17154;DHT22;8692;52.164;7.558;2023-02-15T05:47:12;0.60;99.90
17154;DHT22;8692;52.164;7.558;2023-02-15T05:49:40;0.60;99.90
17154;DHT22;8692;52.164;7.558;2023-02-15T05:52:11;0.60;99.90
17154;DHT22;8692;52.164;7.558;2023-02-15T05:54:41;0.60;99.90
17154;DHT22;8692;52.164;7.558;2023-02-15T05:57:09;0.60;99.90
17154;DHT22;8692;52.164;7.558;2023-02-15T05:59:37;0.50;99.90
17154;DHT22;8692;52.164;7.558;2023-02-15T06:02:07;0.50;99.90
17154;DHT22;8692;52.164;7.558;2023-02-15T06:04:35;0.50;99.90
17154;DHT22;8692;52.164;7.558;2023-02-15T06:07:03;0.50;99.90
17154;DHT22;8692;52.164;7.558;2023-02-15T06:09:33;0.50;99.90
17154;DHT22;8692;52.164;7.558;2023-02-15T06:12:02;0.50;99.90
17154;DHT22;8692;52.164;7.558;2023-02-15T06:14:30;0.50;99.90
17154;DHT22;8692;52.164;7.558;2023-02-15T06:16:58;0.50;99.90
17154;DHT22;8692;52.164;7.558;2023-02-15T06:19:27;0.50;99.90
17154;DHT22;8692;52.164;7.558;2023-02-15T06:21:56;0.50;99.90
17154;DHT22;8692;52.164;7.558;2023-02-15T06:24:24;0.50;99.90
17154;DHT22;8692;52.164;7.558;2023-02-15T06:26:54;0.50;99.90
17154;DHT22;8692;52.164;7.558;2023-02-15T06:29:23;0.40;99.90
17154;DHT22;8692;52.164;7.558;2023-02-15T06:31:51;0.50;99.90
17154;DHT22;8692;52.164;7.558;2023-02-15T06:34:21;0.50;99.90
17154;DHT22;8692;52.164;7.558;2023-02-15T06:36:51;0.50;99.90
17154;DHT22;8692;52.164;7.558;2023-02-15T06:39:21;0.40;99.90
17154;DHT22;8692;52.164;7.558;2023-02-15T06:41:52;0.40;99.90
17154;DHT22;8692;52.164;7.558;2023-02-15T06:44:24;0.40;99.90
17154;DHT22;8692;52.164;7.558;2023-02-15T06:46:54;0.40;99.90
17154;DHT22;8692;52.164;7.558;2023-02-15T06:49:22;0.40;99.90
17154;DHT22;8692;52.164;7.558;2023-02-15T06:51:52;0.40;99.90
17154;DHT22;8692;52.164;7.558;2023-02-15T06:54:20;0.40;99.90
17154;DHT22;8692;52.164;7.558;2023-02-15T06:56:48;0.40;99.90
17154;DHT22;8692;52.164;7.558;2023-02-15T06:59:18;0.30;99.90
17154;DHT22;8692;52.164;7.558;2023-02-15T07:01:47;0.30;99.90
17154;DHT22;8692;52.164;7.558;2023-02-15T07:04:15;0.40;99.90
17154;DHT22;8692;52.164;7.558;2023-02-15T07:06:44;0.30;99.90
17154;DHT22;8692;52.164;7.558;2023-02-15T07:09:16;0.40;99.90
17154;DHT22;8692;52.164;7.558;2023-02-15T07:11:47;0.30;99.90
17154;DHT22;8692;52.164;7.558;2023-02-15T07:14:35;0.30;99.90
17154;DHT22;8692;52.164;7.558;2023-02-15T07:17:03;0.30;99.90
17154;DHT22;8692;52.164;7.558;2023-02-15T07:19:40;0.30;99.90
17154;DHT22;8692;52.164;7.558;2023-02-15T07:22:11;0.40;99.90
17154;DHT22;8692;52.164;7.558;2023-02-15T07:24:40;0.40;99.90
17154;DHT22;8692;52.164;7.558;2023-02-15T07:27:09;0.40;99.90
17154;DHT22;8692;52.164;7.558;2023-02-15T07:29:39;0.40;99.90
17154;DHT22;8692;52.164;7.558;2023-02-15T07:32:07;0.40;99.90
17154;DHT22;8692;52.164;7.558;2023-02-15T07:34:37;0.40;99.90
17154;DHT22;8692;52.164;7.558;2023-02-15T07:37:06;0.40;99.90
17154;DHT22;8692;52.164;7.558;2023-02-15T07:39:36;0.40;99.90
17154;DHT22;8692;52.164;7.558;2023-02-15T07:42:05;0.50;99.90
17154;DHT22;8692;52.164;7.558;2023-02-15T07:44:36;0.50;99.90
17154;DHT22;8692;52.164;7.558;2023-02-15T07:47:04;0.50;99.90
17154;DHT22;8692;52.164;7.558;2023-02-15T07:49:32;0.50;99.90
17154;DHT22;8692;52.164;7.558;2023-02-15T07:52:08;0.50;99.90
17154;DHT22;8692;52.164;7.558;2023-02-15T07:54:38;0.60;99.90
17154;DHT22;8692;52.164;7.558;2023-02-15T07:57:10;0.60;99.90
17154;DHT22;8692;52.164;7.558;2023-02-15T07:59:39;0.70;99.90
17154;DHT22;8692;52.164;7.558;2023-02-15T08:02:10;0.70;99.90
17154;DHT22;8692;52.164;7.558;2023-02-15T08:04:39;0.80;99.90
17154;DHT22;8692;52.164;7.558;2023-02-15T08:07:09;0.80;99.90
17154;DHT22;8692;52.164;7.558;2023-02-15T08:09:37;0.80;99.90
17154;DHT22;8692;52.164;7.558;2023-02-15T08:12:06;0.90;99.90
17154;DHT22;8692;52.164;7.558;2023-02-15T08:14:35;0.90;99.90
17154;DHT22;8692;52.164;7.558;2023-02-15T08:17:04;1.00;99.90
17154;DHT22;8692;52.164;7.558;2023-02-15T08:19:34;1.10;99.90
17154;DHT22;8692;52.164;7.558;2023-02-15T08:22:06;1.10;99.90
17154;DHT22;8692;52.164;7.558;2023-02-15T08:24:37;1.20;99.90
17154;DHT22;8692;52.164;7.558;2023-02-15T08:27:07;1.20;99.90
17154;DHT22;8692;52.164;7.558;2023-02-15T08:29:37;1.30;99.90
17154;DHT22;8692;52.164;7.558;2023-02-15T08:32:08;1.30;99.90
17154;DHT22;8692;52.164;7.558;2023-02-15T08:34:39;1.40;99.90
17154;DHT22;8692;52.164;7.558;2023-02-15T08:37:07;1.40;99.90
17154;DHT22;8692;52.164;7.558;2023-02-15T08:39:38;1.50;99.90
17154;DHT22;8692;52.164;7.558;2023-02-15T08:42:08;1.50;99.90
17154;DHT22;8692;52.164;7.558;2023-02-15T08:44:38;1.60;99.90
17154;DHT22;8692;52.164;7.558;2023-02-15T08:47:06;1.70;99.90
17154;DHT22;8692;52.164;7.558;2023-02-15T08:49:34;1.70;99.90
17154;DHT22;8692;52.164;7.558;2023-02-15T08:52:02;1.80;99.90
17154;DHT22;8692;52.164;7.558;2023-02-15T08:54:30;1.90;99.90
17154;DHT22;8692;52.164;7.558;2023-02-15T08:56:58;2.00;99.90
17154;DHT22;8692;52.164;7.558;2023-02-15T08:59:27;2.00;99.90
17154;DHT22;8692;52.164;7.558;2023-02-15T09:01:56;2.10;99.90
17154;DHT22;8692;52.164;7.558;2023-02-15T09:04:25;2.20;99.90
17154;DHT22;8692;52.164;7.558;2023-02-15T09:06:55;2.20;99.90
17154;DHT22;8692;52.164;7.558;2023-02-15T09:09:26;2.30;99.90
17154;DHT22;8692;52.164;7.558;2023-02-15T09:11:56;2.40;99.90
17154;DHT22;8692;52.164;7.558;2023-02-15T09:14:26;2.50;99.90
17154;DHT22;8692;52.164;7.558;2023-02-15T09:16:58;2.50;99.90
17154;DHT22;8692;52.164;7.558;2023-02-15T09:19:26;2.70;99.90
17154;DHT22;8692;52.164;7.558;2023-02-15T09:21:56;2.70;99.90
17154;DHT22;8692;52.164;7.558;2023-02-15T09:24:25;2.80;99.90
17154;DHT22;8692;52.164;7.558;2023-02-15T09:26:53;2.90;99.90
17154;DHT22;8692;52.164;7.558;2023-02-15T09:29:21;3.00;99.90
17154;DHT22;8692;52.164;7.558;2023-02-15T09:31:51;3.10;99.90
17154;DHT22;8692;52.164;7.558;2023-02-15T09:34:22;3.20;99.90
17154;DHT22;8692;52.164;7.558;2023-02-15T09:36:52;3.20;99.90
17154;DHT22;8692;52.164;7.558;2023-02-15T09:39:22;3.30;99.90
17154;DHT22;8692;52.164;7.558;2023-02-15T09:42:15;3.40;99.90
17154;DHT22;8692;52.164;7.558;2023-02-15T09:45:09;3.50;99.90
17154;DHT22;8692;52.164;7.558;2023-02-15T09:48:05;3.60;99.90
17154;DHT22;8692;52.164;7.558;2023-02-15T09:50:44;3.80;99.90
17154;DHT22;8692;52.164;7.558;2023-02-15T09:53:29;3.80;99.90
17154;DHT22;8692;52.164;7.558;2023-02-15T09:56:06;4.00;99.90
17154;DHT22;8692;52.164;7.558;2023-02-15T09:58:46;4.10;99.90
17154;DHT22;8692;52.164;7.558;2023-02-15T10:01:26;4.20;99.90
17154;DHT22;8692;52.164;7.558;2023-02-15T10:04:13;4.30;99.90
17154;DHT22;8692;52.164;7.558;2023-02-15T10:06:56;4.40;99.90
17154;DHT22;8692;52.164;7.558;2023-02-15T10:09:39;4.60;99.90
17154;DHT22;8692;52.164;7.558;2023-02-15T10:12:22;4.70;99.90
17154;DHT22;8692;52.164;7.558;2023-02-15T10:15:16;4.80;99.90
17154;DHT22;8692;52.164;7.558;2023-02-15T10:18:05;5.00;99.90
17154;DHT22;8692;52.164;7.558;2023-02-15T10:20:44;5.10;99.90
17154;DHT22;8692;52.164;7.558;2023-02-15T10:23:37;5.20;99.90
17154;DHT22;8692;52.164;7.558;2023-02-15T10:26:14;5.40;99.90
17154;DHT22;8692;52.164;7.558;2023-02-15T10:28:48;5.50;99.90
17154;DHT22;8692;52.164;7.558;2023-02-15T10:31:24;5.60;99.90
17154;DHT22;8692;52.164;7.558;2023-02-15T10:34:15;5.70;99.90
17154;DHT22;8692;52.164;7.558;2023-02-15T10:37:01;5.80;99.90
17154;DHT22;8692;52.164;7.558;2023-02-15T10:39:41;5.90;99.90
17154;DHT22;8692;52.164;7.558;2023-02-15T10:42:18;6.10;99.90
17154;DHT22;8692;52.164;7.558;2023-02-15T10:45:03;6.10;99.90
17154;DHT22;8692;52.164;7.558;2023-02-15T10:47:55;6.30;99.90
17154;DHT22;8692;52.164;7.558;2023-02-15T10:50:46;6.40;99.90
17154;DHT22;8692;52.164;7.558;2023-02-15T10:53:33;6.50;99.90
17154;DHT22;8692;52.164;7.558;2023-02-15T10:56:14;6.60;99.90
17154;DHT22;8692;52.164;7.558;2023-02-15T10:59:00;6.80;99.90
17154;DHT22;8692;52.164;7.558;2023-02-15T11:01:38;6.90;99.90
17154;DHT22;8692;52.164;7.558;2023-02-15T11:07:15;7.10;99.90
17154;DHT22;8692;52.164;7.558;2023-02-15T11:09:48;7.20;99.90
17154;DHT22;8692;52.164;7.558;2023-02-15T11:12:22;7.20;99.90
17154;DHT22;8692;52.164;7.558;2023-02-15T11:14:57;7.30;99.90
17154;DHT22;8692;52.164;7.558;2023-02-15T11:17:29;7.40;99.90
17154;DHT22;8692;52.164;7.558;2023-02-15T11:20:04;7.50;99.90
17154;DHT22;8692;52.164;7.558;2023-02-15T11:22:35;7.60;99.90
17154;DHT22;8692;52.164;7.558;2023-02-15T11:25:17;7.70;99.90
17154;DHT22;8692;52.164;7.558;2023-02-15T11:27:50;7.70;99.90
17154;DHT22;8692;52.164;7.558;2023-02-15T11:30:22;7.80;99.90
17154;DHT22;8692;52.164;7.558;2023-02-15T11:32:52;7.80;99.90
17154;DHT22;8692;52.164;7.558;2023-02-15T11:35:27;7.90;99.90
17154;DHT22;8692;52.164;7.558;2023-02-15T11:38:01;7.90;99.90
17154;DHT22;8692;52.164;7.558;2023-02-15T11:40:36;8.00;99.90
17154;DHT22;8692;52.164;7.558;2023-02-15T11:43:16;8.00;99.90
17154;DHT22;8692;52.164;7.558;2023-02-15T11:45:46;8.10;99.90
17154;DHT22;8692;52.164;7.558;2023-02-15T11:48:15;8.10;99.90
17154;DHT22;8692;52.164;7.558;2023-02-15T11:50:46;8.20;99.90
17154;DHT22;8692;52.164;7.558;2023-02-15T11:53:17;8.20;99.90
17154;DHT22;8692;52.164;7.558;2023-02-15T11:55:49;8.30;99.90
17154;DHT22;8692;52.164;7.558;2023-02-15T11:58:28;8.40;99.90
17154;DHT22;8692;52.164;7.558;2023-02-15T12:01:07;8.40;99.90
17154;DHT22;8692;52.164;7.558;2023-02-15T12:03:43;8.60;99.90
17154;DHT22;8692;52.164;7.558;2023-02-15T12:06:22;8.70;99.90
17154;DHT22;8692;52.164;7.558;2023-02-15T12:09:03;8.80;99.90
17154;DHT22;8692;52.164;7.558;2023-02-15T12:11:35;8.90;99.90
17154;DHT22;8692;52.164;7.558;2023-02-15T12:14:09;9.00;99.90
17154;DHT22;8692;52.164;7.558;2023-02-15T12:16:44;9.10;99.90
17154;DHT22;8692;52.164;7.558;2023-02-15T12:19:29;9.20;99.90
17154;DHT22;8692;52.164;7.558;2023-02-15T12:21:59;9.30;99.90
17154;DHT22;8692;52.164;7.558;2023-02-15T12:24:33;9.40;99.90
17154;DHT22;8692;52.164;7.558;2023-02-15T12:27:03;9.50;99.90
17154;DHT22;8692;52.164;7.558;2023-02-15T12:29:40;9.60;99.90
17154;DHT22;8692;52.164;7.558;2023-02-15T12:32:15;9.70;99.90
17154;DHT22;8692;52.164;7.558;2023-02-15T12:34:45;9.70;99.90
17154;DHT22;8692;52.164;7.558;2023-02-15T12:37:19;9.80;99.90
17154;DHT22;8692;52.164;7.558;2023-02-15T12:39:53;9.90;99.90
17154;DHT22;8692;52.164;7.558;2023-02-15T12:42:22;9.90;99.90
17154;DHT22;8692;52.164;7.558;2023-02-15T12:44:58;10.10;99.90
17154;DHT22;8692;52.164;7.558;2023-02-15T12:47:27;10.20;99.90
17154;DHT22;8692;52.164;7.558;2023-02-15T12:50:09;10.30;99.90
17154;DHT22;8692;52.164;7.558;2023-02-15T12:52:47;10.40;99.90
17154;DHT22;8692;52.164;7.558;2023-02-15T12:55:21;10.50;99.90
17154;DHT22;8692;52.164;7.558;2023-02-15T12:58:08;10.60;99.90
17154;DHT22;8692;52.164;7.558;2023-02-15T13:00:38;10.70;99.90
17154;DHT22;8692;52.164;7.558;2023-02-15T13:03:16;10.80;99.90
17154;DHT22;8692;52.164;7.558;2023-02-15T13:05:46;10.90;99.90
17154;DHT22;8692;52.164;7.558;2023-02-15T13:08:17;11.10;99.90
17154;DHT22;8692;52.164;7.558;2023-02-15T13:10:54;11.10;99.90
17154;DHT22;8692;52.164;7.558;2023-02-15T13:13:24;11.20;99.90
17154;DHT22;8692;52.164;7.558;2023-02-15T13:15:58;11.20;99.90
17154;DHT22;8692;52.164;7.558;2023-02-15T13:18:32;11.30;99.90
17154;DHT22;8692;52.164;7.558;2023-02-15T13:21:10;11.40;99.90
17154;DHT22;8692;52.164;7.558;2023-02-15T13:23:43;11.50;99.90
17154;DHT22;8692;52.164;7.558;2023-02-15T13:26:18;11.60;99.90
17154;DHT22;8692;52.164;7.558;2023-02-15T13:28:49;11.60;99.90
17154;DHT22;8692;52.164;7.558;2023-02-15T13:31:29;11.60;99.90
17154;DHT22;8692;52.164;7.558;2023-02-15T13:34:02;11.70;99.90
17154;DHT22;8692;52.164;7.558;2023-02-15T13:36:36;11.70;99.90
17154;DHT22;8692;52.164;7.558;2023-02-15T13:39:20;11.80;99.90
17154;DHT22;8692;52.164;7.558;2023-02-15T13:41:56;11.90;99.90
17154;DHT22;8692;52.164;7.558;2023-02-15T13:44:45;12.00;99.90
17154;DHT22;8692;52.164;7.558;2023-02-15T13:47:23;12.00;99.90
17154;DHT22;8692;52.164;7.558;2023-02-15T13:50:07;12.10;99.90
17154;DHT22;8692;52.164;7.558;2023-02-15T13:52:47;12.10;99.90
17154;DHT22;8692;52.164;7.558;2023-02-15T13:55:36;12.20;99.90
17154;DHT22;8692;52.164;7.558;2023-02-15T13:58:16;12.30;99.90
17154;DHT22;8692;52.164;7.558;2023-02-15T14:00:59;12.40;99.90
17154;DHT22;8692;52.164;7.558;2023-02-15T14:03:56;12.40;99.90
17154;DHT22;8692;52.164;7.558;2023-02-15T14:09:38;12.50;99.90
17154;DHT22;8692;52.164;7.558;2023-02-15T14:12:25;12.50;99.90
17154;DHT22;8692;52.164;7.558;2023-02-15T14:15:11;12.60;99.90
17154;DHT22;8692;52.164;7.558;2023-02-15T14:17:52;12.60;99.90
17154;DHT22;8692;52.164;7.558;2023-02-15T14:20:34;12.70;99.90
17154;DHT22;8692;52.164;7.558;2023-02-15T14:23:10;12.70;99.90
17154;DHT22;8692;52.164;7.558;2023-02-15T14:25:43;12.70;99.90
17154;DHT22;8692;52.164;7.558;2023-02-15T14:28:19;12.70;99.90
17154;DHT22;8692;52.164;7.558;2023-02-15T14:30:50;12.70;99.90
17154;DHT22;8692;52.164;7.558;2023-02-15T14:33:31;12.70;99.90
17154;DHT22;8692;52.164;7.558;2023-02-15T14:36:06;12.80;99.90
17154;DHT22;8692;52.164;7.558;2023-02-15T14:38:51;12.80;99.90
17154;DHT22;8692;52.164;7.558;2023-02-15T14:41:31;12.70;99.90
17154;DHT22;8692;52.164;7.558;2023-02-15T14:44:08;12.70;99.90
17154;DHT22;8692;52.164;7.558;2023-02-15T14:46:46;12.60;99.90
17154;DHT22;8692;52.164;7.558;2023-02-15T14:49:19;12.60;99.90
17154;DHT22;8692;52.164;7.558;2023-02-15T14:51:58;12.60;99.90
17154;DHT22;8692;52.164;7.558;2023-02-15T14:54:55;12.60;99.90
17154;DHT22;8692;52.164;7.558;2023-02-15T14:57:25;12.60;99.90
17154;DHT22;8692;52.164;7.558;2023-02-15T14:59:55;12.50;99.90
17154;DHT22;8692;52.164;7.558;2023-02-15T15:02:28;12.50;99.90
17154;DHT22;8692;52.164;7.558;2023-02-15T15:05:03;12.40;99.90
17154;DHT22;8692;52.164;7.558;2023-02-15T15:07:43;12.40;99.90
17154;DHT22;8692;52.164;7.558;2023-02-15T15:10:39;12.40;99.90
17154;DHT22;8692;52.164;7.558;2023-02-15T15:16:30;12.20;99.90
17154;DHT22;8692;52.164;7.558;2023-02-15T15:18:59;12.10;99.90
17154;DHT22;8692;52.164;7.558;2023-02-15T15:21:53;12.10;99.90
17154;DHT22;8692;52.164;7.558;2023-02-15T15:24:51;12.00;99.90
17154;DHT22;8692;52.164;7.558;2023-02-15T15:27:44;12.00;99.90
17154;DHT22;8692;52.164;7.558;2023-02-15T15:40:16;11.70;99.90
17154;DHT22;8692;52.164;7.558;2023-02-15T15:42:51;11.70;99.90
17154;DHT22;8692;52.164;7.558;2023-02-15T15:45:34;11.60;99.90
17154;DHT22;8692;52.164;7.558;2023-02-15T15:48:27;11.60;99.90
17154;DHT22;8692;52.164;7.558;2023-02-15T15:51:02;11.50;99.90
17154;DHT22;8692;52.164;7.558;2023-02-15T15:53:39;11.50;99.90
17154;DHT22;8692;52.164;7.558;2023-02-15T15:56:13;11.40;99.90
17154;DHT22;8692;52.164;7.558;2023-02-15T15:58:45;11.30;99.90
17154;DHT22;8692;52.164;7.558;2023-02-15T16:01:15;11.30;99.90
17154;DHT22;8692;52.164;7.558;2023-02-15T16:03:50;11.20;99.90
17154;DHT22;8692;52.164;7.558;2023-02-15T16:06:34;11.20;99.90
17154;DHT22;8692;52.164;7.558;2023-02-15T16:09:15;11.10;99.90
17154;DHT22;8692;52.164;7.558;2023-02-15T16:11:46;11.10;99.90
17154;DHT22;8692;52.164;7.558;2023-02-15T16:14:17;11.00;99.90
17154;DHT22;8692;52.164;7.558;2023-02-15T16:16:52;10.90;99.90
17154;DHT22;8692;52.164;7.558;2023-02-15T16:19:25;10.90;99.90
17154;DHT22;8692;52.164;7.558;2023-02-15T16:21:59;10.80;99.90
17154;DHT22;8692;52.164;7.558;2023-02-15T16:24:54;10.80;99.90
17154;DHT22;8692;52.164;7.558;2023-02-15T16:27:34;10.70;99.90
17154;DHT22;8692;52.164;7.558;2023-02-15T16:30:25;10.70;99.90
17154;DHT22;8692;52.164;7.558;2023-02-15T16:33:04;10.60;99.90
17154;DHT22;8692;52.164;7.558;2023-02-15T16:35:37;10.50;99.90
17154;DHT22;8692;52.164;7.558;2023-02-15T16:38:09;10.50;99.90
17154;DHT22;8692;52.164;7.558;2023-02-15T16:40:48;10.40;99.90
17154;DHT22;8692;52.164;7.558;2023-02-15T16:43:24;10.30;99.90
17154;DHT22;8692;52.164;7.558;2023-02-15T16:46:03;10.20;99.90
17154;DHT22;8692;52.164;7.558;2023-02-15T16:48:33;10.20;99.90
17154;DHT22;8692;52.164;7.558;2023-02-15T16:51:03;10.10;99.90
17154;DHT22;8692;52.164;7.558;2023-02-15T16:53:31;10.00;99.90
17154;DHT22;8692;52.164;7.558;2023-02-15T16:56:04;10.00;99.90
17154;DHT22;8692;52.164;7.558;2023-02-15T16:58:38;9.90;99.90
17154;DHT22;8692;52.164;7.558;2023-02-15T17:01:11;9.80;99.90
17154;DHT22;8692;52.164;7.558;2023-02-15T17:03:41;9.70;99.90
17154;DHT22;8692;52.164;7.558;2023-02-15T17:06:20;9.60;99.90
17154;DHT22;8692;52.164;7.558;2023-02-15T17:08:52;9.60;99.90
17154;DHT22;8692;52.164;7.558;2023-02-15T17:11:39;9.50;99.90